This is the latest recevied weather packets stored in our database for station/object SALIDA. If no packets are shown the sender has not sent any weather packets the latest 10 day(s).
| Time | Temp. | Humidity | Pressure | Rain* | Wind** | Luminosity | Snow |
|---|---|---|---|---|---|---|---|
| 1777481199 | 10.56° C | 50% | 1009.1 hPa | 0 mm | - | - | - |
| 1777480299 | 9.44° C | 52% | 1009.5 hPa | 0 mm | - | - | - |
| 1777479399 | 8.89° C | 53% | 1010 hPa | 0 mm | - | - | - |
| 1777478499 | 8.89° C | 55% | 1010.4 hPa | 0 mm | - | - | - |
| 1777477599 | 8.33° C | 59% | 1010.6 hPa | 0 mm | - | - | - |
| 1777476699 | 7.78° C | 60% | 1011 hPa | 0 mm | - | - | - |
| 1777475799 | 7.22° C | 62% | 1011 hPa | 0 mm | - | - | - |
| 1777474899 | 7.22° C | 64% | 1011.5 hPa | 0 mm | - | - | - |
| 1777473999 | 6.67° C | 65% | 1011.7 hPa | 0 mm | - | - | - |
| 1777473099 | 5.56° C | 67% | 1011.8 hPa | 0 mm | - | - | - |
| 1777472199 | 4.44° C | 67% | 1011.9 hPa | 0 mm | - | - | - |
| 1777471300 | 3.89° C | 69% | 1012 hPa | 0 mm | - | - | - |
| 1777470399 | 2.78° C | 72% | 1012.2 hPa | 0 mm | - | - | - |
| 1777469499 | 2.22° C | 73% | 1012 hPa | 0 mm | - | - | - |
| 1777468599 | 1.67° C | 73% | 1012.1 hPa | 0 mm | - | - | - |
| 1777467699 | 1.11° C | 73% | 1012 hPa | 0 mm | - | - | - |
| 1777466799 | 1.11° C | 73% | 1011.9 hPa | 0 mm | - | - | - |
| 1777465899 | 1.11° C | 74% | 1011.7 hPa | 0 mm | - | - | - |
| 1777464999 | 1.11° C | 73% | 1011.7 hPa | 0 mm | - | - | - |
| 1777464099 | 1.67° C | 72% | 1011.5 hPa | 0 mm | - | - | - |
| 1777463199 | 2.22° C | 70% | 1011.4 hPa | 0 mm | - | - | - |
| 1777462299 | 2.22° C | 68% | 1011.4 hPa | 0 mm | - | - | - |
| 1777461399 | 2.22° C | 70% | 1011.4 hPa | 0 mm | - | - | - |
| 1777460499 | 2.22° C | 69% | 1011.3 hPa | 0 mm | - | - | - |
| 1777459599 | 2.22° C | 66% | 1011.1 hPa | 0 mm | - | - | - |
* Rain latest hour (hover to see other rain measurements)
** Current wind speed in m/s (hover to see current wind gust speed)